sensor_id;sensor_type;location;lat;lon;timestamp;temperature;humidity
20487;DHT22;10402;49.012;8.370;2022-08-21T00:01:42;21.70;54.50
20487;DHT22;10402;49.012;8.370;2022-08-21T00:04:09;21.70;55.30
20487;DHT22;10402;49.012;8.370;2022-08-21T00:06:36;21.60;54.60
20487;DHT22;10402;49.012;8.370;2022-08-21T00:09:04;21.60;54.70
20487;DHT22;10402;49.012;8.370;2022-08-21T00:11:30;21.60;54.90
20487;DHT22;10402;49.012;8.370;2022-08-21T00:13:56;21.50;54.90
20487;DHT22;10402;49.012;8.370;2022-08-21T00:16:22;21.50;55.00
20487;DHT22;10402;49.012;8.370;2022-08-21T00:18:48;21.40;55.10
20487;DHT22;10402;49.012;8.370;2022-08-21T00:21:13;21.40;55.20
20487;DHT22;10402;49.012;8.370;2022-08-21T00:23:39;21.40;55.30
20487;DHT22;10402;49.012;8.370;2022-08-21T00:26:05;21.30;55.40
20487;DHT22;10402;49.012;8.370;2022-08-21T00:28:32;21.30;55.50
20487;DHT22;10402;49.012;8.370;2022-08-21T00:30:58;21.30;55.50
20487;DHT22;10402;49.012;8.370;2022-08-21T00:33:25;21.30;55.70
20487;DHT22;10402;49.012;8.370;2022-08-21T00:35:51;21.20;55.70
20487;DHT22;10402;49.012;8.370;2022-08-21T00:38:17;21.20;55.80
20487;DHT22;10402;49.012;8.370;2022-08-21T00:40:47;21.20;55.90
20487;DHT22;10402;49.012;8.370;2022-08-21T00:43:17;21.10;55.90
20487;DHT22;10402;49.012;8.370;2022-08-21T00:45:43;21.10;56.00
20487;DHT22;10402;49.012;8.370;2022-08-21T00:48:10;21.10;56.10
20487;DHT22;10402;49.012;8.370;2022-08-21T00:50:48;21.00;56.20
20487;DHT22;10402;49.012;8.370;2022-08-21T00:53:15;21.00;56.30
20487;DHT22;10402;49.012;8.370;2022-08-21T00:55:41;21.00;56.40
20487;DHT22;10402;49.012;8.370;2022-08-21T00:58:09;21.00;56.50
20487;DHT22;10402;49.012;8.370;2022-08-21T01:00:38;20.90;56.40
20487;DHT22;10402;49.012;8.370;2022-08-21T01:03:13;20.90;56.60
20487;DHT22;10402;49.012;8.370;2022-08-21T01:05:41;20.80;56.70
20487;DHT22;10402;49.012;8.370;2022-08-21T01:08:08;20.80;56.80
20487;DHT22;10402;49.012;8.370;2022-08-21T01:10:34;20.70;56.90
20487;DHT22;10402;49.012;8.370;2022-08-21T01:13:01;20.70;57.00
20487;DHT22;10402;49.012;8.370;2022-08-21T01:15:34;20.70;57.00
20487;DHT22;10402;49.012;8.370;2022-08-21T01:18:06;20.70;57.20
20487;DHT22;10402;49.012;8.370;2022-08-21T01:20:33;20.60;57.20
20487;DHT22;10402;49.012;8.370;2022-08-21T01:23:01;20.60;57.30
20487;DHT22;10402;49.012;8.370;2022-08-21T01:25:27;20.60;57.30
20487;DHT22;10402;49.012;8.370;2022-08-21T01:27:52;20.60;57.40
20487;DHT22;10402;49.012;8.370;2022-08-21T01:30:21;20.60;58.10
20487;DHT22;10402;49.012;8.370;2022-08-21T01:32:48;20.50;57.50
20487;DHT22;10402;49.012;8.370;2022-08-21T01:35:15;20.50;57.60
20487;DHT22;10402;49.012;8.370;2022-08-21T01:37:42;20.50;57.60
20487;DHT22;10402;49.012;8.370;2022-08-21T01:40:09;20.50;57.60
20487;DHT22;10402;49.012;8.370;2022-08-21T01:42:38;20.50;57.70
20487;DHT22;10402;49.012;8.370;2022-08-21T01:45:05;20.40;57.60
20487;DHT22;10402;49.012;8.370;2022-08-21T01:47:31;20.40;57.80
20487;DHT22;10402;49.012;8.370;2022-08-21T01:49:58;20.40;57.90
20487;DHT22;10402;49.012;8.370;2022-08-21T01:52:23;20.30;57.90
20487;DHT22;10402;49.012;8.370;2022-08-21T01:54:49;20.30;58.00
20487;DHT22;10402;49.012;8.370;2022-08-21T01:57:14;20.30;58.00
20487;DHT22;10402;49.012;8.370;2022-08-21T01:59:40;20.30;58.10
20487;DHT22;10402;49.012;8.370;2022-08-21T02:02:06;20.30;58.20
20487;DHT22;10402;49.012;8.370;2022-08-21T02:04:32;20.20;58.20
20487;DHT22;10402;49.012;8.370;2022-08-21T02:06:59;20.20;58.40
20487;DHT22;10402;49.012;8.370;2022-08-21T02:09:25;20.10;58.40
20487;DHT22;10402;49.012;8.370;2022-08-21T02:11:51;20.10;58.50
20487;DHT22;10402;49.012;8.370;2022-08-21T02:14:17;20.10;58.60
20487;DHT22;10402;49.012;8.370;2022-08-21T02:16:44;20.00;58.50
20487;DHT22;10402;49.012;8.370;2022-08-21T02:19:12;20.00;58.60
20487;DHT22;10402;49.012;8.370;2022-08-21T02:21:37;20.00;58.80
20487;DHT22;10402;49.012;8.370;2022-08-21T02:24:03;20.00;58.80
20487;DHT22;10402;49.012;8.370;2022-08-21T02:26:29;20.00;58.90
20487;DHT22;10402;49.012;8.370;2022-08-21T02:28:55;19.90;58.90
20487;DHT22;10402;49.012;8.370;2022-08-21T02:31:21;19.90;59.00
20487;DHT22;10402;49.012;8.370;2022-08-21T02:33:46;19.80;58.90
20487;DHT22;10402;49.012;8.370;2022-08-21T02:36:13;19.90;59.20
20487;DHT22;10402;49.012;8.370;2022-08-21T02:38:41;19.80;59.10
20487;DHT22;10402;49.012;8.370;2022-08-21T02:41:10;19.80;59.20
20487;DHT22;10402;49.012;8.370;2022-08-21T02:43:36;19.80;59.20
20487;DHT22;10402;49.012;8.370;2022-08-21T02:46:03;19.70;59.30
20487;DHT22;10402;49.012;8.370;2022-08-21T02:48:31;19.70;59.40
20487;DHT22;10402;49.012;8.370;2022-08-21T02:51:00;19.70;59.40
20487;DHT22;10402;49.012;8.370;2022-08-21T02:53:26;19.70;59.40
20487;DHT22;10402;49.012;8.370;2022-08-21T02:55:53;19.70;59.50
20487;DHT22;10402;49.012;8.370;2022-08-21T02:58:22;19.60;59.40
20487;DHT22;10402;49.012;8.370;2022-08-21T03:00:48;19.60;59.50
20487;DHT22;10402;49.012;8.370;2022-08-21T03:03:15;19.60;59.60
20487;DHT22;10402;49.012;8.370;2022-08-21T03:05:42;19.50;59.60
20487;DHT22;10402;49.012;8.370;2022-08-21T03:08:09;19.50;59.70
20487;DHT22;10402;49.012;8.370;2022-08-21T03:10:44;19.50;59.80
20487;DHT22;10402;49.012;8.370;2022-08-21T03:13:10;19.50;59.80
20487;DHT22;10402;49.012;8.370;2022-08-21T03:15:37;19.50;59.90
20487;DHT22;10402;49.012;8.370;2022-08-21T03:18:04;19.50;59.90
20487;DHT22;10402;49.012;8.370;2022-08-21T03:20:31;19.60;59.90
20487;DHT22;10402;49.012;8.370;2022-08-21T03:22:58;19.60;59.90
20487;DHT22;10402;49.012;8.370;2022-08-21T03:25:25;19.50;59.90
20487;DHT22;10402;49.012;8.370;2022-08-21T03:27:52;19.60;60.00
20487;DHT22;10402;49.012;8.370;2022-08-21T03:30:20;19.50;59.90
20487;DHT22;10402;49.012;8.370;2022-08-21T03:32:46;19.50;60.00
20487;DHT22;10402;49.012;8.370;2022-08-21T03:35:13;19.50;60.00
20487;DHT22;10402;49.012;8.370;2022-08-21T03:37:39;19.50;60.00
20487;DHT22;10402;49.012;8.370;2022-08-21T03:40:06;19.40;60.00
20487;DHT22;10402;49.012;8.370;2022-08-21T03:42:32;19.40;60.00
20487;DHT22;10402;49.012;8.370;2022-08-21T03:44:58;19.40;60.00
20487;DHT22;10402;49.012;8.370;2022-08-21T03:47:23;19.40;60.10
20487;DHT22;10402;49.012;8.370;2022-08-21T03:49:49;19.30;60.20
20487;DHT22;10402;49.012;8.370;2022-08-21T03:52:15;19.30;60.30
20487;DHT22;10402;49.012;8.370;2022-08-21T03:54:41;19.30;60.40
20487;DHT22;10402;49.012;8.370;2022-08-21T03:57:07;19.30;60.50
20487;DHT22;10402;49.012;8.370;2022-08-21T03:59:34;19.20;60.50
20487;DHT22;10402;49.012;8.370;2022-08-21T04:02:01;19.20;61.40
20487;DHT22;10402;49.012;8.370;2022-08-21T04:04:27;19.20;60.80
20487;DHT22;10402;49.012;8.370;2022-08-21T04:06:54;19.20;60.80
20487;DHT22;10402;49.012;8.370;2022-08-21T04:09:19;19.20;60.70
20487;DHT22;10402;49.012;8.370;2022-08-21T04:11:45;19.10;60.70
20487;DHT22;10402;49.012;8.370;2022-08-21T04:14:12;19.10;60.90
20487;DHT22;10402;49.012;8.370;2022-08-21T04:16:38;19.10;61.00
20487;DHT22;10402;49.012;8.370;2022-08-21T04:19:04;19.10;61.00
20487;DHT22;10402;49.012;8.370;2022-08-21T04:21:30;19.00;61.00
20487;DHT22;10402;49.012;8.370;2022-08-21T04:23:57;19.00;61.20
20487;DHT22;10402;49.012;8.370;2022-08-21T04:26:22;18.90;61.20
20487;DHT22;10402;49.012;8.370;2022-08-21T04:28:48;18.90;61.30
20487;DHT22;10402;49.012;8.370;2022-08-21T04:31:14;18.90;61.40
20487;DHT22;10402;49.012;8.370;2022-08-21T04:33:39;18.90;61.50
20487;DHT22;10402;49.012;8.370;2022-08-21T04:36:05;18.80;61.50
20487;DHT22;10402;49.012;8.370;2022-08-21T04:38:32;18.80;61.60
20487;DHT22;10402;49.012;8.370;2022-08-21T04:40:58;18.80;61.70
20487;DHT22;10402;49.012;8.370;2022-08-21T04:43:23;18.80;61.70
20487;DHT22;10402;49.012;8.370;2022-08-21T04:45:50;18.80;61.70
20487;DHT22;10402;49.012;8.370;2022-08-21T04:48:19;18.80;61.70
20487;DHT22;10402;49.012;8.370;2022-08-21T04:53:30;18.80;61.70
20487;DHT22;10402;49.012;8.370;2022-08-21T04:56:01;18.80;61.70
20487;DHT22;10402;49.012;8.370;2022-08-21T04:58:28;18.80;61.80
20487;DHT22;10402;49.012;8.370;2022-08-21T05:00:56;18.80;61.90
20487;DHT22;10402;49.012;8.370;2022-08-21T05:03:22;18.80;62.00
20487;DHT22;10402;49.012;8.370;2022-08-21T05:05:48;18.80;62.00
20487;DHT22;10402;49.012;8.370;2022-08-21T05:08:17;18.80;62.10
20487;DHT22;10402;49.012;8.370;2022-08-21T05:10:43;18.70;62.00
20487;DHT22;10402;49.012;8.370;2022-08-21T05:13:11;18.70;62.10
20487;DHT22;10402;49.012;8.370;2022-08-21T05:15:38;18.60;62.10
20487;DHT22;10402;49.012;8.370;2022-08-21T05:18:04;18.60;62.30
20487;DHT22;10402;49.012;8.370;2022-08-21T05:20:30;18.60;62.30
20487;DHT22;10402;49.012;8.370;2022-08-21T05:22:56;18.50;62.30
20487;DHT22;10402;49.012;8.370;2022-08-21T05:25:22;18.60;62.40
20487;DHT22;10402;49.012;8.370;2022-08-21T05:27:47;18.50;62.20
20487;DHT22;10402;49.012;8.370;2022-08-21T05:30:13;18.60;62.30
20487;DHT22;10402;49.012;8.370;2022-08-21T05:32:38;18.60;62.30
20487;DHT22;10402;49.012;8.370;2022-08-21T05:35:06;18.60;63.10
20487;DHT22;10402;49.012;8.370;2022-08-21T05:37:32;18.60;62.30
20487;DHT22;10402;49.012;8.370;2022-08-21T05:39:59;18.60;62.40
20487;DHT22;10402;49.012;8.370;2022-08-21T05:42:24;18.60;62.30
20487;DHT22;10402;49.012;8.370;2022-08-21T05:44:50;18.70;62.30
20487;DHT22;10402;49.012;8.370;2022-08-21T05:47:15;18.70;62.20
20487;DHT22;10402;49.012;8.370;2022-08-21T05:49:41;18.80;62.30
20487;DHT22;10402;49.012;8.370;2022-08-21T05:52:06;18.80;62.30
20487;DHT22;10402;49.012;8.370;2022-08-21T05:54:32;18.90;62.20
20487;DHT22;10402;49.012;8.370;2022-08-21T05:56:58;18.90;62.10
20487;DHT22;10402;49.012;8.370;2022-08-21T05:59:23;18.90;61.90
20487;DHT22;10402;49.012;8.370;2022-08-21T06:01:49;19.00;62.30
20487;DHT22;10402;49.012;8.370;2022-08-21T06:04:17;19.00;61.80
20487;DHT22;10402;49.012;8.370;2022-08-21T06:06:42;19.10;61.80
20487;DHT22;10402;49.012;8.370;2022-08-21T06:09:08;19.20;61.70
20487;DHT22;10402;49.012;8.370;2022-08-21T06:11:34;19.20;61.60
20487;DHT22;10402;49.012;8.370;2022-08-21T06:13:59;19.20;61.60
20487;DHT22;10402;49.012;8.370;2022-08-21T06:16:26;19.30;61.50
20487;DHT22;10402;49.012;8.370;2022-08-21T06:18:52;19.30;61.30
20487;DHT22;10402;49.012;8.370;2022-08-21T06:21:18;19.40;61.30
20487;DHT22;10402;49.012;8.370;2022-08-21T06:23:44;19.50;61.20
20487;DHT22;10402;49.012;8.370;2022-08-21T06:26:12;19.50;61.10
20487;DHT22;10402;49.012;8.370;2022-08-21T06:28:38;19.50;61.00
20487;DHT22;10402;49.012;8.370;2022-08-21T06:31:16;19.50;61.00
20487;DHT22;10402;49.012;8.370;2022-08-21T06:33:42;19.60;61.00
20487;DHT22;10402;49.012;8.370;2022-08-21T06:36:08;19.60;60.90
20487;DHT22;10402;49.012;8.370;2022-08-21T06:38:34;19.70;60.90
20487;DHT22;10402;49.012;8.370;2022-08-21T06:41:00;19.70;60.70
20487;DHT22;10402;49.012;8.370;2022-08-21T06:43:26;19.80;60.80
20487;DHT22;10402;49.012;8.370;2022-08-21T06:45:51;19.80;60.60
20487;DHT22;10402;49.012;8.370;2022-08-21T06:48:17;19.80;60.60
20487;DHT22;10402;49.012;8.370;2022-08-21T06:50:42;19.80;60.50
20487;DHT22;10402;49.012;8.370;2022-08-21T06:53:13;19.90;60.50
20487;DHT22;10402;49.012;8.370;2022-08-21T06:55:40;19.90;60.40
20487;DHT22;10402;49.012;8.370;2022-08-21T06:58:06;20.00;60.50
20487;DHT22;10402;49.012;8.370;2022-08-21T07:00:32;20.00;60.50
20487;DHT22;10402;49.012;8.370;2022-08-21T07:02:58;20.10;60.60
20487;DHT22;10402;49.012;8.370;2022-08-21T07:05:29;20.00;60.50
20487;DHT22;10402;49.012;8.370;2022-08-21T07:07:55;20.10;60.50
20487;DHT22;10402;49.012;8.370;2022-08-21T07:10:22;20.20;60.50
20487;DHT22;10402;49.012;8.370;2022-08-21T07:12:47;20.20;60.40
20487;DHT22;10402;49.012;8.370;2022-08-21T07:15:13;20.20;60.30
20487;DHT22;10402;49.012;8.370;2022-08-21T07:17:38;20.30;60.40
20487;DHT22;10402;49.012;8.370;2022-08-21T07:20:05;20.30;60.30
20487;DHT22;10402;49.012;8.370;2022-08-21T07:22:31;20.40;60.20
20487;DHT22;10402;49.012;8.370;2022-08-21T07:24:57;20.40;60.20
20487;DHT22;10402;49.012;8.370;2022-08-21T07:27:22;20.40;60.20
20487;DHT22;10402;49.012;8.370;2022-08-21T07:29:48;20.50;60.20
20487;DHT22;10402;49.012;8.370;2022-08-21T07:32:14;20.50;60.10
20487;DHT22;10402;49.012;8.370;2022-08-21T07:34:40;20.60;60.20
20487;DHT22;10402;49.012;8.370;2022-08-21T07:37:06;20.70;60.10
20487;DHT22;10402;49.012;8.370;2022-08-21T07:39:31;20.70;60.00
20487;DHT22;10402;49.012;8.370;2022-08-21T07:41:57;20.70;59.90
20487;DHT22;10402;49.012;8.370;2022-08-21T07:44:22;20.80;60.00
20487;DHT22;10402;49.012;8.370;2022-08-21T07:46:48;20.80;59.90
20487;DHT22;10402;49.012;8.370;2022-08-21T07:49:14;20.80;59.80
20487;DHT22;10402;49.012;8.370;2022-08-21T07:51:39;20.80;59.80
20487;DHT22;10402;49.012;8.370;2022-08-21T07:54:05;20.90;59.90
20487;DHT22;10402;49.012;8.370;2022-08-21T07:56:31;20.90;59.80
20487;DHT22;10402;49.012;8.370;2022-08-21T07:58:56;20.90;59.80
20487;DHT22;10402;49.012;8.370;2022-08-21T08:01:23;20.90;59.80
20487;DHT22;10402;49.012;8.370;2022-08-21T08:03:49;21.00;59.60
20487;DHT22;10402;49.012;8.370;2022-08-21T08:06:16;21.20;59.60
20487;DHT22;10402;49.012;8.370;2022-08-21T08:08:44;21.20;59.40
20487;DHT22;10402;49.012;8.370;2022-08-21T08:11:11;21.30;59.30
20487;DHT22;10402;49.012;8.370;2022-08-21T08:13:47;21.40;59.20
20487;DHT22;10402;49.012;8.370;2022-08-21T08:16:13;21.40;59.20
20487;DHT22;10402;49.012;8.370;2022-08-21T08:18:39;21.50;59.20
20487;DHT22;10402;49.012;8.370;2022-08-21T08:21:06;21.50;59.10
20487;DHT22;10402;49.012;8.370;2022-08-21T08:23:32;21.60;59.10
20487;DHT22;10402;49.012;8.370;2022-08-21T08:25:58;21.70;59.00
20487;DHT22;10402;49.012;8.370;2022-08-21T08:28:24;21.70;58.80
20487;DHT22;10402;49.012;8.370;2022-08-21T08:30:50;21.80;58.70
20487;DHT22;10402;49.012;8.370;2022-08-21T08:33:16;21.90;58.60
20487;DHT22;10402;49.012;8.370;2022-08-21T08:35:46;22.00;58.50
20487;DHT22;10402;49.012;8.370;2022-08-21T08:38:12;22.00;58.40
20487;DHT22;10402;49.012;8.370;2022-08-21T08:40:47;22.10;58.30
20487;DHT22;10402;49.012;8.370;2022-08-21T08:43:17;22.20;58.20
20487;DHT22;10402;49.012;8.370;2022-08-21T08:45:46;22.30;58.30
20487;DHT22;10402;49.012;8.370;2022-08-21T08:48:28;22.40;58.20
20487;DHT22;10402;49.012;8.370;2022-08-21T08:50:57;22.40;58.00
20487;DHT22;10402;49.012;8.370;2022-08-21T08:53:35;22.50;57.80
20487;DHT22;10402;49.012;8.370;2022-08-21T08:56:04;22.50;57.70
20487;DHT22;10402;49.012;8.370;2022-08-21T08:58:34;22.50;57.60
20487;DHT22;10402;49.012;8.370;2022-08-21T09:01:05;22.50;57.40
20487;DHT22;10402;49.012;8.370;2022-08-21T09:03:40;22.50;57.50
20487;DHT22;10402;49.012;8.370;2022-08-21T09:11:49;22.70;57.30
20487;DHT22;10402;49.012;8.370;2022-08-21T09:14:31;22.80;57.10
20487;DHT22;10402;49.012;8.370;2022-08-21T09:22:57;23.00;56.70
20487;DHT22;10402;49.012;8.370;2022-08-21T09:25:30;23.00;56.50
20487;DHT22;10402;49.012;8.370;2022-08-21T09:27:57;23.10;56.40
20487;DHT22;10402;49.012;8.370;2022-08-21T09:30:31;23.20;56.20
20487;DHT22;10402;49.012;8.370;2022-08-21T09:32:57;23.30;56.10
20487;DHT22;10402;49.012;8.370;2022-08-21T09:35:23;23.40;56.00
20487;DHT22;10402;49.012;8.370;2022-08-21T09:43:21;23.50;55.60
20487;DHT22;10402;49.012;8.370;2022-08-21T09:45:50;23.60;55.50
20487;DHT22;10402;49.012;8.370;2022-08-21T09:48:25;23.70;55.40
20487;DHT22;10402;49.012;8.370;2022-08-21T09:50:52;23.80;55.20
20487;DHT22;10402;49.012;8.370;2022-08-21T09:53:22;23.80;55.00
20487;DHT22;10402;49.012;8.370;2022-08-21T09:56:03;23.90;54.80
20487;DHT22;10402;49.012;8.370;2022-08-21T09:58:50;24.00;54.70
20487;DHT22;10402;49.012;8.370;2022-08-21T10:01:22;24.00;54.40
20487;DHT22;10402;49.012;8.370;2022-08-21T10:03:48;24.10;54.20
20487;DHT22;10402;49.012;8.370;2022-08-21T10:06:24;24.10;54.20
20487;DHT22;10402;49.012;8.370;2022-08-21T10:08:50;24.20;54.10
20487;DHT22;10402;49.012;8.370;2022-08-21T10:11:17;24.20;53.70
20487;DHT22;10402;49.012;8.370;2022-08-21T10:19:35;24.40;53.30
20487;DHT22;10402;49.012;8.370;2022-08-21T10:22:34;24.40;53.20
20487;DHT22;10402;49.012;8.370;2022-08-21T10:27:50;24.60;53.10
20487;DHT22;10402;49.012;8.370;2022-08-21T10:30:27;24.60;52.80
20487;DHT22;10402;49.012;8.370;2022-08-21T10:33:08;24.60;52.70
20487;DHT22;10402;49.012;8.370;2022-08-21T10:35:41;24.70;52.60
20487;DHT22;10402;49.012;8.370;2022-08-21T10:38:45;24.70;52.30
20487;DHT22;10402;49.012;8.370;2022-08-21T10:47:18;24.70;51.90
20487;DHT22;10402;49.012;8.370;2022-08-21T10:53:18;24.80;51.20
20487;DHT22;10402;49.012;8.370;2022-08-21T10:55:55;24.80;51.00
20487;DHT22;10402;49.012;8.370;2022-08-21T10:58:36;24.90;50.60
20487;DHT22;10402;49.012;8.370;2022-08-21T11:01:11;25.00;51.10
20487;DHT22;10402;49.012;8.370;2022-08-21T11:03:44;25.00;50.40
20487;DHT22;10402;49.012;8.370;2022-08-21T11:06:25;25.00;50.20
20487;DHT22;10402;49.012;8.370;2022-08-21T11:08:58;25.00;50.70
20487;DHT22;10402;49.012;8.370;2022-08-21T11:11:32;25.00;50.10
20487;DHT22;10402;49.012;8.370;2022-08-21T11:17:06;25.10;50.00
20487;DHT22;10402;49.012;8.370;2022-08-21T11:19:42;25.10;50.00
20487;DHT22;10402;49.012;8.370;2022-08-21T11:22:21;25.20;49.70
20487;DHT22;10402;49.012;8.370;2022-08-21T11:25:03;25.30;49.80
20487;DHT22;10402;49.012;8.370;2022-08-21T11:27:38;25.30;49.90
20487;DHT22;10402;49.012;8.370;2022-08-21T11:30:06;25.30;50.00
20487;DHT22;10402;49.012;8.370;2022-08-21T11:32:59;25.30;49.80
20487;DHT22;10402;49.012;8.370;2022-08-21T11:38:26;25.40;49.60
20487;DHT22;10402;49.012;8.370;2022-08-21T11:41:20;25.40;49.20
20487;DHT22;10402;49.012;8.370;2022-08-21T11:50:18;25.50;48.60
20487;DHT22;10402;49.012;8.370;2022-08-21T11:53:00;25.50;48.60
20487;DHT22;10402;49.012;8.370;2022-08-21T11:55:38;25.50;48.40
20487;DHT22;10402;49.012;8.370;2022-08-21T11:58:20;25.50;48.20
20487;DHT22;10402;49.012;8.370;2022-08-21T12:00:52;25.60;48.00
20487;DHT22;10402;49.012;8.370;2022-08-21T12:03:26;25.60;47.90
20487;DHT22;10402;49.012;8.370;2022-08-21T12:05:58;25.60;47.90
20487;DHT22;10402;49.012;8.370;2022-08-21T12:08:32;25.60;47.60
20487;DHT22;10402;49.012;8.370;2022-08-21T12:11:22;25.60;47.70
20487;DHT22;10402;49.012;8.370;2022-08-21T12:14:15;25.60;47.60
20487;DHT22;10402;49.012;8.370;2022-08-21T12:16:46;25.60;47.20
20487;DHT22;10402;49.012;8.370;2022-08-21T12:24:37;25.70;46.30
20487;DHT22;10402;49.012;8.370;2022-08-21T12:27:27;25.80;46.50
20487;DHT22;10402;49.012;8.370;2022-08-21T12:30:04;25.80;46.50
20487;DHT22;10402;49.012;8.370;2022-08-21T12:32:45;25.80;46.50
20487;DHT22;10402;49.012;8.370;2022-08-21T12:35:18;25.80;46.30
20487;DHT22;10402;49.012;8.370;2022-08-21T12:37:51;25.80;46.30
20487;DHT22;10402;49.012;8.370;2022-08-21T12:40:30;25.80;46.30
20487;DHT22;10402;49.012;8.370;2022-08-21T12:42:59;25.90;46.20
20487;DHT22;10402;49.012;8.370;2022-08-21T12:45:32;25.90;46.00
20487;DHT22;10402;49.012;8.370;2022-08-21T12:48:04;25.90;46.00
20487;DHT22;10402;49.012;8.370;2022-08-21T12:50:50;26.00;46.00
20487;DHT22;10402;49.012;8.370;2022-08-21T12:53:54;26.00;45.60
20487;DHT22;10402;49.012;8.370;2022-08-21T12:56:33;26.10;45.60
20487;DHT22;10402;49.012;8.370;2022-08-21T12:59:03;26.10;45.40
20487;DHT22;10402;49.012;8.370;2022-08-21T13:01:46;26.20;45.30
20487;DHT22;10402;49.012;8.370;2022-08-21T13:04:17;26.20;45.20
20487;DHT22;10402;49.012;8.370;2022-08-21T13:06:48;26.30;45.20
20487;DHT22;10402;49.012;8.370;2022-08-21T13:09:16;26.30;45.00
20487;DHT22;10402;49.012;8.370;2022-08-21T13:11:45;26.40;44.90
20487;DHT22;10402;49.012;8.370;2022-08-21T13:16:55;26.40;44.80
20487;DHT22;10402;49.012;8.370;2022-08-21T13:19:21;26.40;44.60
20487;DHT22;10402;49.012;8.370;2022-08-21T13:21:47;26.50;44.60
20487;DHT22;10402;49.012;8.370;2022-08-21T13:24:18;26.50;44.50
20487;DHT22;10402;49.012;8.370;2022-08-21T13:26:44;26.60;44.60
20487;DHT22;10402;49.012;8.370;2022-08-21T13:29:14;26.60;44.50
20487;DHT22;10402;49.012;8.370;2022-08-21T13:31:45;26.60;44.50
20487;DHT22;10402;49.012;8.370;2022-08-21T13:34:11;26.60;44.50
20487;DHT22;10402;49.012;8.370;2022-08-21T13:36:39;26.60;44.50
20487;DHT22;10402;49.012;8.370;2022-08-21T13:39:12;26.60;44.40
20487;DHT22;10402;49.012;8.370;2022-08-21T13:41:41;26.70;44.40
20487;DHT22;10402;49.012;8.370;2022-08-21T13:46:48;26.60;44.50
20487;DHT22;10402;49.012;8.370;2022-08-21T13:49:18;26.60;44.20
20487;DHT22;10402;49.012;8.370;2022-08-21T13:51:44;26.70;44.10
20487;DHT22;10402;49.012;8.370;2022-08-21T13:54:20;26.80;44.00
20487;DHT22;10402;49.012;8.370;2022-08-21T13:56:47;26.80;44.00
20487;DHT22;10402;49.012;8.370;2022-08-21T13:59:33;26.90;43.60
20487;DHT22;10402;49.012;8.370;2022-08-21T14:02:22;26.90;43.70
20487;DHT22;10402;49.012;8.370;2022-08-21T14:05:01;26.90;43.60
20487;DHT22;10402;49.012;8.370;2022-08-21T14:07:30;26.90;43.70
20487;DHT22;10402;49.012;8.370;2022-08-21T14:10:04;26.90;43.50
20487;DHT22;10402;49.012;8.370;2022-08-21T14:12:53;26.90;43.30
20487;DHT22;10402;49.012;8.370;2022-08-21T14:15:25;27.00;43.20
20487;DHT22;10402;49.012;8.370;2022-08-21T14:17:51;27.00;43.10
20487;DHT22;10402;49.012;8.370;2022-08-21T14:20:31;27.00;42.90
20487;DHT22;10402;49.012;8.370;2022-08-21T14:22:57;27.10;42.90
20487;DHT22;10402;49.012;8.370;2022-08-21T14:27:56;27.10;42.90
20487;DHT22;10402;49.012;8.370;2022-08-21T14:30:29;27.20;42.70
20487;DHT22;10402;49.012;8.370;2022-08-21T14:32:57;27.20;42.40
20487;DHT22;10402;49.012;8.370;2022-08-21T14:35:23;27.20;42.30
20487;DHT22;10402;49.012;8.370;2022-08-21T14:37:49;27.20;42.10
20487;DHT22;10402;49.012;8.370;2022-08-21T14:40:20;27.20;42.10
20487;DHT22;10402;49.012;8.370;2022-08-21T14:42:46;27.20;42.00
20487;DHT22;10402;49.012;8.370;2022-08-21T14:45:19;27.20;41.80
20487;DHT22;10402;49.012;8.370;2022-08-21T14:47:47;27.20;41.90
20487;DHT22;10402;49.012;8.370;2022-08-21T14:50:13;27.20;41.90
20487;DHT22;10402;49.012;8.370;2022-08-21T14:52:39;27.30;41.80
20487;DHT22;10402;49.012;8.370;2022-08-21T14:55:06;27.30;41.70
20487;DHT22;10402;49.012;8.370;2022-08-21T14:57:32;27.30;41.60
20487;DHT22;10402;49.012;8.370;2022-08-21T14:59:58;27.30;41.60
20487;DHT22;10402;49.012;8.370;2022-08-21T15:02:25;27.30;41.50
20487;DHT22;10402;49.012;8.370;2022-08-21T15:04:50;27.30;41.40
20487;DHT22;10402;49.012;8.370;2022-08-21T15:07:16;27.30;41.30
20487;DHT22;10402;49.012;8.370;2022-08-21T15:09:42;27.30;41.30
20487;DHT22;10402;49.012;8.370;2022-08-21T15:12:07;27.30;40.80
20487;DHT22;10402;49.012;8.370;2022-08-21T15:14:36;27.30;40.90
20487;DHT22;10402;49.012;8.370;2022-08-21T15:17:05;27.40;41.00
20487;DHT22;10402;49.012;8.370;2022-08-21T15:19:31;27.40;41.00
20487;DHT22;10402;49.012;8.370;2022-08-21T15:21:57;27.40;41.00
20487;DHT22;10402;49.012;8.370;2022-08-21T15:24:22;27.40;41.00
20487;DHT22;10402;49.012;8.370;2022-08-21T15:26:48;27.40;40.90
20487;DHT22;10402;49.012;8.370;2022-08-21T15:29:15;27.40;40.90
20487;DHT22;10402;49.012;8.370;2022-08-21T15:31:52;27.40;40.80
20487;DHT22;10402;49.012;8.370;2022-08-21T15:34:18;27.40;40.70
20487;DHT22;10402;49.012;8.370;2022-08-21T15:36:44;27.40;40.50
20487;DHT22;10402;49.012;8.370;2022-08-21T15:39:09;27.40;40.40
20487;DHT22;10402;49.012;8.370;2022-08-21T15:41:35;27.40;40.40
20487;DHT22;10402;49.012;8.370;2022-08-21T15:44:01;27.40;40.30
20487;DHT22;10402;49.012;8.370;2022-08-21T15:46:26;27.40;40.00
20487;DHT22;10402;49.012;8.370;2022-08-21T15:48:52;27.40;40.10
20487;DHT22;10402;49.012;8.370;2022-08-21T15:51:18;27.50;40.10
20487;DHT22;10402;49.012;8.370;2022-08-21T15:53:44;27.50;40.10
20487;DHT22;10402;49.012;8.370;2022-08-21T15:56:28;27.50;40.10
20487;DHT22;10402;49.012;8.370;2022-08-21T15:59:04;27.50;39.90
20487;DHT22;10402;49.012;8.370;2022-08-21T16:01:30;27.50;39.80
20487;DHT22;10402;49.012;8.370;2022-08-21T16:03:56;27.60;39.70
20487;DHT22;10402;49.012;8.370;2022-08-21T16:06:22;27.60;39.60
20487;DHT22;10402;49.012;8.370;2022-08-21T16:08:48;27.60;39.60
20487;DHT22;10402;49.012;8.370;2022-08-21T16:11:14;27.60;39.60
20487;DHT22;10402;49.012;8.370;2022-08-21T16:13:42;27.60;39.50
20487;DHT22;10402;49.012;8.370;2022-08-21T16:16:18;27.60;39.30
20487;DHT22;10402;49.012;8.370;2022-08-21T16:18:44;27.60;39.20
20487;DHT22;10402;49.012;8.370;2022-08-21T16:21:10;27.60;38.80
20487;DHT22;10402;49.012;8.370;2022-08-21T16:23:35;27.60;38.80
20487;DHT22;10402;49.012;8.370;2022-08-21T16:28:41;27.60;38.80
20487;DHT22;10402;49.012;8.370;2022-08-21T16:31:08;27.50;38.80
20487;DHT22;10402;49.012;8.370;2022-08-21T16:33:39;27.50;38.90
20487;DHT22;10402;49.012;8.370;2022-08-21T16:36:07;27.50;38.90
20487;DHT22;10402;49.012;8.370;2022-08-21T16:38:34;27.60;38.90
20487;DHT22;10402;49.012;8.370;2022-08-21T16:41:06;27.60;38.80
20487;DHT22;10402;49.012;8.370;2022-08-21T16:43:33;27.50;38.80
20487;DHT22;10402;49.012;8.370;2022-08-21T16:45:59;27.50;38.80
20487;DHT22;10402;49.012;8.370;2022-08-21T16:48:26;27.50;38.80